CheckWX is a tool to help pilots better visualize weather data.  It is not intended as a substitute for an official pre-flight weather briefing.

12:51:04 UTC

KOQT METAR
Oak Ridge Airport
Tennessee, USA
Current

58 mins ago

KOQT 221153Z AUTO VRB04KT 10SM -RA FEW085 OVC110 08/08 A3023 RMK AO2 SLP239 P0005 60033 70049 T00780078 10089 20078 53010
Observed
Feb-22 @ 11:53 UTC
Wind
  • Variable at 4 KTS
Visibility
10 SM
Flight Rules
VFR
Conditions
Light Rain
Cloud Levels
  • Few at 8,500' AGL
  • Overcast at 11,000' AGL
Temperature
C / 46°F
Dewpoint
C / 46°F
Humidity
100%
Altimeter
30.23" Hg
Pressure
1023.9 hPa
Current Rain
0.05"
Previous

2 hours ago

KOQT 221053Z AUTO VRB03KT 9SM -RA FEW090 OVC110 08/08 A3020 RMK AO2 SLP230 P0002 T00830083
Observed
Feb-22 @ 10:53 UTC
Wind
  • Variable at 3 KTS
Visibility
9 SM
Flight Rules
VFR
Conditions
Light Rain
Cloud Levels
  • Few at 9,000' AGL
  • Overcast at 11,000' AGL
Temperature
C / 46°F
Dewpoint
C / 46°F
Humidity
100%
Altimeter
30.2" Hg
Pressure
1023 hPa
Current Rain
0.02"
Previous

3 hours ago

KOQT 220953Z AUTO VRB03KT 9SM -RA SCT037 OVC055 08/08 A3021 RMK AO2 SLP233 P0003 T00830083
Observed
Feb-22 @ 09:53 UTC
Wind
  • Variable at 3 KTS
Visibility
9 SM
Flight Rules
VFR
Conditions
Light Rain
Cloud Levels
  • Scattered at 3,700' AGL
  • Overcast at 5,500' AGL
Temperature
C / 46°F
Dewpoint
C / 46°F
Humidity
100%
Altimeter
30.21" Hg
Pressure
1023.3 hPa
Current Rain
0.03"